Buffalo Niagara International Airport
KBUF : now visible

Airfield :











YOU CAN JOIN US ON...

 
LOGIN :

Register | Disclaimer

   EN    FR    IT 

 









Legend :    VFR   Marginal VFR   IFR   Intensive IFR   Very Intensive IFR
Visi :
Ceiling :
>= 8 km
>= 3000ft
5 to 8 km
1000 to 3000 ft
1500m to 5 km
500 to 1000 ft
800 to 1500m
200 to 500 ft
< 800m
< 200 ft
Symbols :   Thunderstorms  Fog  Heavy snow  Heavy precipitations  Wind > 20 kt






- Airport Elevation : 728 ft
- IATA code : BUF


KBUF - Buffalo Niagara International

CURRENT METAR :
  • 291254Z 01005KT 10SM OVC026 M04/M07 A3018 RMK AO2 SLP228 T10391072

EXPIRED METARs :
  • 291206Z 01006KT 10SM SCT015 OVC022 M03/M07 A3016 RMK AO2 T10331067
  • 291154Z 36007KT 10SM BKN014 OVC022 M03/M07 A3015 RMK AO2 SNE44 SLP220 P0000 60000 T10331072 11006 21033 53022
  • 291054Z 36009KT 9SM -SN OVC014 M03/M06 A3012 RMK AO2 SLP209 P0000 T10281061
  • 291041Z 02008KT 9SM -SN BKN014 OVC020 M03/M06 A3012 RMK AO2 P0000 T10281061

TAF KBUF
Valid from the 29 at 12:00 until the 30 at 12:00 UTC


291139Z 2912/3012 36009KT P6SM -SN OVC015
FM291700 34005KT P6SM OVC020
FM292100 01005KT P6SM BKN050
FM300000 04005KT P6SM BKN250



MET'MAP, your aeronautical weather chart ! - Copyright ORBIFLY December 2007 - Disclaimer

ORBIFLY MET'MAP TEAM :

Programming & Development : Alexandra Zaïnal
Concept & original design : Baudouin d'Aumeries
Assistance for programming : Marc-Olivier Méhu
Technical & hardware support : Manuel Goepfert

Contact : metmap@orbifly.com




SOURCES & CREDITS :

   NOAA       Earth
Advisory